sensor_id;sensor_type;location;lat;lon;timestamp;temperature;humidity
48998;DHT22;34807;51.456;7.244;2023-08-20T00:02:24;21.80;97.80
48998;DHT22;34807;51.456;7.244;2023-08-20T00:04:50;21.80;97.80
48998;DHT22;34807;51.456;7.244;2023-08-20T00:07:16;21.70;97.80
48998;DHT22;34807;51.456;7.244;2023-08-20T00:09:43;21.70;97.80
48998;DHT22;34807;51.456;7.244;2023-08-20T00:12:09;21.70;97.80
48998;DHT22;34807;51.456;7.244;2023-08-20T00:14:53;21.70;97.90
48998;DHT22;34807;51.456;7.244;2023-08-20T00:17:24;21.70;98.20
48998;DHT22;34807;51.456;7.244;2023-08-20T00:19:55;21.60;98.10
48998;DHT22;34807;51.456;7.244;2023-08-20T00:22:24;21.60;97.90
48998;DHT22;34807;51.456;7.244;2023-08-20T00:24:53;21.60;97.90
48998;DHT22;34807;51.456;7.244;2023-08-20T00:27:19;21.60;98.00
48998;DHT22;34807;51.456;7.244;2023-08-20T00:29:45;21.60;97.90
48998;DHT22;34807;51.456;7.244;2023-08-20T00:32:10;21.60;97.80
48998;DHT22;34807;51.456;7.244;2023-08-20T00:34:36;21.60;98.00
48998;DHT22;34807;51.456;7.244;2023-08-20T00:37:02;21.60;98.10
48998;DHT22;34807;51.456;7.244;2023-08-20T00:39:28;21.50;98.20
48998;DHT22;34807;51.456;7.244;2023-08-20T00:41:54;21.50;98.10
48998;DHT22;34807;51.456;7.244;2023-08-20T00:44:19;21.50;98.20
48998;DHT22;34807;51.456;7.244;2023-08-20T00:46:45;21.50;98.30
48998;DHT22;34807;51.456;7.244;2023-08-20T00:49:10;21.50;98.20
48998;DHT22;34807;51.456;7.244;2023-08-20T00:51:36;21.40;98.10
48998;DHT22;34807;51.456;7.244;2023-08-20T00:54:02;21.40;98.20
48998;DHT22;34807;51.456;7.244;2023-08-20T00:56:28;21.40;98.20
48998;DHT22;34807;51.456;7.244;2023-08-20T00:58:54;21.40;97.90
48998;DHT22;34807;51.456;7.244;2023-08-20T01:01:20;21.40;98.20
48998;DHT22;34807;51.456;7.244;2023-08-20T01:03:45;21.40;98.00
48998;DHT22;34807;51.456;7.244;2023-08-20T01:06:20;21.40;98.40
48998;DHT22;34807;51.456;7.244;2023-08-20T01:08:47;21.30;98.40
48998;DHT22;34807;51.456;7.244;2023-08-20T01:11:16;21.30;98.50
48998;DHT22;34807;51.456;7.244;2023-08-20T01:13:43;21.30;98.50
48998;DHT22;34807;51.456;7.244;2023-08-20T01:16:09;21.30;98.40
48998;DHT22;34807;51.456;7.244;2023-08-20T01:18:34;21.30;98.20
48998;DHT22;34807;51.456;7.244;2023-08-20T01:21:04;21.30;98.40
48998;DHT22;34807;51.456;7.244;2023-08-20T01:28:26;21.20;98.50
48998;DHT22;34807;51.456;7.244;2023-08-20T01:30:52;21.20;98.70
48998;DHT22;34807;51.456;7.244;2023-08-20T01:33:19;21.20;98.80
48998;DHT22;34807;51.456;7.244;2023-08-20T01:35:44;21.20;98.70
48998;DHT22;34807;51.456;7.244;2023-08-20T01:38:10;21.10;98.60
48998;DHT22;34807;51.456;7.244;2023-08-20T01:40:35;21.10;98.60
48998;DHT22;34807;51.456;7.244;2023-08-20T01:43:01;21.10;98.70
48998;DHT22;34807;51.456;7.244;2023-08-20T01:45:26;21.10;98.70
48998;DHT22;34807;51.456;7.244;2023-08-20T01:47:52;21.10;98.60
48998;DHT22;34807;51.456;7.244;2023-08-20T01:50:17;21.10;98.60
48998;DHT22;34807;51.456;7.244;2023-08-20T01:52:43;21.10;98.80
48998;DHT22;34807;51.456;7.244;2023-08-20T01:55:09;21.00;98.60
48998;DHT22;34807;51.456;7.244;2023-08-20T01:57:34;21.10;98.80
48998;DHT22;34807;51.456;7.244;2023-08-20T02:00:00;21.00;98.90
48998;DHT22;34807;51.456;7.244;2023-08-20T02:02:25;21.00;98.90
48998;DHT22;34807;51.456;7.244;2023-08-20T02:04:51;21.00;98.50
48998;DHT22;34807;51.456;7.244;2023-08-20T02:07:16;21.00;98.50
48998;DHT22;34807;51.456;7.244;2023-08-20T02:09:42;21.00;98.50
48998;DHT22;34807;51.456;7.244;2023-08-20T02:12:08;20.90;98.60
48998;DHT22;34807;51.456;7.244;2023-08-20T02:14:34;20.90;98.80
48998;DHT22;34807;51.456;7.244;2023-08-20T02:17:03;20.90;99.00
48998;DHT22;34807;51.456;7.244;2023-08-20T02:19:29;20.90;99.00
48998;DHT22;34807;51.456;7.244;2023-08-20T02:21:54;20.90;99.10
48998;DHT22;34807;51.456;7.244;2023-08-20T02:24:20;20.90;98.90
48998;DHT22;34807;51.456;7.244;2023-08-20T02:26:45;20.90;98.80
48998;DHT22;34807;51.456;7.244;2023-08-20T02:29:11;20.90;98.80
48998;DHT22;34807;51.456;7.244;2023-08-20T02:31:36;20.80;98.80
48998;DHT22;34807;51.456;7.244;2023-08-20T02:34:02;20.80;98.80
48998;DHT22;34807;51.456;7.244;2023-08-20T02:36:28;20.80;98.90
48998;DHT22;34807;51.456;7.244;2023-08-20T02:38:53;20.80;99.00
48998;DHT22;34807;51.456;7.244;2023-08-20T02:41:18;20.80;99.00
48998;DHT22;34807;51.456;7.244;2023-08-20T02:43:44;20.80;98.90
48998;DHT22;34807;51.456;7.244;2023-08-20T02:46:10;20.80;99.00
48998;DHT22;34807;51.456;7.244;2023-08-20T02:48:35;20.80;98.80
48998;DHT22;34807;51.456;7.244;2023-08-20T02:51:01;20.80;98.70
48998;DHT22;34807;51.456;7.244;2023-08-20T02:53:26;20.80;98.60
48998;DHT22;34807;51.456;7.244;2023-08-20T02:55:52;20.80;98.50
48998;DHT22;34807;51.456;7.244;2023-08-20T02:58:17;20.80;98.60
48998;DHT22;34807;51.456;7.244;2023-08-20T03:00:43;20.70;98.60
48998;DHT22;34807;51.456;7.244;2023-08-20T03:03:10;20.70;98.60
48998;DHT22;34807;51.456;7.244;2023-08-20T03:05:36;20.70;98.60
48998;DHT22;34807;51.456;7.244;2023-08-20T03:08:01;20.70;98.60
48998;DHT22;34807;51.456;7.244;2023-08-20T03:10:29;20.70;98.60
48998;DHT22;34807;51.456;7.244;2023-08-20T03:12:54;20.70;98.60
48998;DHT22;34807;51.456;7.244;2023-08-20T03:15:20;20.70;98.60
48998;DHT22;34807;51.456;7.244;2023-08-20T03:17:45;20.70;98.60
48998;DHT22;34807;51.456;7.244;2023-08-20T03:20:11;20.70;98.60
48998;DHT22;34807;51.456;7.244;2023-08-20T03:22:37;20.60;98.60
48998;DHT22;34807;51.456;7.244;2023-08-20T03:25:03;20.60;98.60
48998;DHT22;34807;51.456;7.244;2023-08-20T03:27:28;20.70;98.70
48998;DHT22;34807;51.456;7.244;2023-08-20T03:29:54;20.60;98.90
48998;DHT22;34807;51.456;7.244;2023-08-20T03:32:19;20.60;98.80
48998;DHT22;34807;51.456;7.244;2023-08-20T03:34:45;20.60;98.80
48998;DHT22;34807;51.456;7.244;2023-08-20T03:37:10;20.60;98.70
48998;DHT22;34807;51.456;7.244;2023-08-20T03:39:36;20.60;98.70
48998;DHT22;34807;51.456;7.244;2023-08-20T03:42:01;20.60;98.80
48998;DHT22;34807;51.456;7.244;2023-08-20T03:44:27;20.60;98.70
48998;DHT22;34807;51.456;7.244;2023-08-20T03:46:54;20.50;98.80
48998;DHT22;34807;51.456;7.244;2023-08-20T03:49:20;20.50;98.90
48998;DHT22;34807;51.456;7.244;2023-08-20T03:51:45;20.50;98.70
48998;DHT22;34807;51.456;7.244;2023-08-20T03:54:11;20.50;98.70
48998;DHT22;34807;51.456;7.244;2023-08-20T03:56:36;20.50;98.80
48998;DHT22;34807;51.456;7.244;2023-08-20T03:59:02;20.50;98.70
48998;DHT22;34807;51.456;7.244;2023-08-20T04:01:27;20.50;98.70
48998;DHT22;34807;51.456;7.244;2023-08-20T04:03:53;20.50;98.80
48998;DHT22;34807;51.456;7.244;2023-08-20T04:06:18;20.50;98.70
48998;DHT22;34807;51.456;7.244;2023-08-20T04:08:44;20.50;99.10
48998;DHT22;34807;51.456;7.244;2023-08-20T04:11:09;20.50;98.70
48998;DHT22;34807;51.456;7.244;2023-08-20T04:13:35;20.50;98.80
48998;DHT22;34807;51.456;7.244;2023-08-20T04:16:00;20.50;98.90
48998;DHT22;34807;51.456;7.244;2023-08-20T04:18:26;20.50;98.90
48998;DHT22;34807;51.456;7.244;2023-08-20T04:20:52;20.50;99.00
48998;DHT22;34807;51.456;7.244;2023-08-20T04:23:18;20.40;98.80
48998;DHT22;34807;51.456;7.244;2023-08-20T04:25:44;20.40;98.80
48998;DHT22;34807;51.456;7.244;2023-08-20T04:28:10;20.40;98.80
48998;DHT22;34807;51.456;7.244;2023-08-20T04:30:36;20.40;98.80
48998;DHT22;34807;51.456;7.244;2023-08-20T04:33:02;20.40;98.90
48998;DHT22;34807;51.456;7.244;2023-08-20T04:35:27;20.40;98.80
48998;DHT22;34807;51.456;7.244;2023-08-20T04:37:53;20.40;98.90
48998;DHT22;34807;51.456;7.244;2023-08-20T04:40:18;20.40;99.00
48998;DHT22;34807;51.456;7.244;2023-08-20T04:42:44;20.40;98.70
48998;DHT22;34807;51.456;7.244;2023-08-20T04:45:09;20.40;98.90
48998;DHT22;34807;51.456;7.244;2023-08-20T04:47:36;20.40;98.90
48998;DHT22;34807;51.456;7.244;2023-08-20T04:50:02;20.40;98.90
48998;DHT22;34807;51.456;7.244;2023-08-20T04:52:27;20.40;98.80
48998;DHT22;34807;51.456;7.244;2023-08-20T04:54:53;20.40;98.80
48998;DHT22;34807;51.456;7.244;2023-08-20T04:57:19;20.40;98.80
48998;DHT22;34807;51.456;7.244;2023-08-20T04:59:44;20.40;98.80
48998;DHT22;34807;51.456;7.244;2023-08-20T05:02:11;20.40;98.80
48998;DHT22;34807;51.456;7.244;2023-08-20T05:04:36;20.40;98.80
48998;DHT22;34807;51.456;7.244;2023-08-20T05:07:02;20.40;98.80
48998;DHT22;34807;51.456;7.244;2023-08-20T05:09:28;20.40;98.80
48998;DHT22;34807;51.456;7.244;2023-08-20T05:11:54;20.40;98.80
48998;DHT22;34807;51.456;7.244;2023-08-20T05:14:19;20.40;98.70
48998;DHT22;34807;51.456;7.244;2023-08-20T05:16:45;20.40;98.80
48998;DHT22;34807;51.456;7.244;2023-08-20T05:19:10;20.40;98.70
48998;DHT22;34807;51.456;7.244;2023-08-20T05:21:36;20.40;98.70
48998;DHT22;34807;51.456;7.244;2023-08-20T05:24:01;20.40;98.70
48998;DHT22;34807;51.456;7.244;2023-08-20T05:26:27;20.50;98.70
48998;DHT22;34807;51.456;7.244;2023-08-20T05:28:52;20.50;98.80
48998;DHT22;34807;51.456;7.244;2023-08-20T05:31:18;20.50;98.80
48998;DHT22;34807;51.456;7.244;2023-08-20T05:33:43;20.50;98.80
48998;DHT22;34807;51.456;7.244;2023-08-20T05:36:09;20.50;98.70
48998;DHT22;34807;51.456;7.244;2023-08-20T05:38:34;20.50;99.00
48998;DHT22;34807;51.456;7.244;2023-08-20T05:41:00;20.50;98.80
48998;DHT22;34807;51.456;7.244;2023-08-20T05:43:25;20.50;98.70
48998;DHT22;34807;51.456;7.244;2023-08-20T05:45:51;20.50;98.70
48998;DHT22;34807;51.456;7.244;2023-08-20T05:48:16;20.50;98.70
48998;DHT22;34807;51.456;7.244;2023-08-20T05:50:42;20.50;98.70
48998;DHT22;34807;51.456;7.244;2023-08-20T05:53:07;20.50;98.70
48998;DHT22;34807;51.456;7.244;2023-08-20T05:55:33;20.50;98.70
48998;DHT22;34807;51.456;7.244;2023-08-20T05:57:58;20.50;98.70
48998;DHT22;34807;51.456;7.244;2023-08-20T06:00:24;20.50;98.90
48998;DHT22;34807;51.456;7.244;2023-08-20T06:02:49;20.50;98.70
48998;DHT22;34807;51.456;7.244;2023-08-20T06:05:15;20.50;98.70
48998;DHT22;34807;51.456;7.244;2023-08-20T06:07:41;20.50;98.70
48998;DHT22;34807;51.456;7.244;2023-08-20T06:10:06;20.50;98.70
48998;DHT22;34807;51.456;7.244;2023-08-20T06:12:32;20.50;98.70
48998;DHT22;34807;51.456;7.244;2023-08-20T06:14:58;20.50;98.70
48998;DHT22;34807;51.456;7.244;2023-08-20T06:17:23;20.50;98.70
48998;DHT22;34807;51.456;7.244;2023-08-20T06:19:49;20.50;98.70
48998;DHT22;34807;51.456;7.244;2023-08-20T06:22:14;20.50;98.70
48998;DHT22;34807;51.456;7.244;2023-08-20T06:24:40;20.50;98.70
48998;DHT22;34807;51.456;7.244;2023-08-20T06:27:05;20.50;98.60
48998;DHT22;34807;51.456;7.244;2023-08-20T06:29:31;20.60;98.80
48998;DHT22;34807;51.456;7.244;2023-08-20T06:31:57;20.50;98.70
48998;DHT22;34807;51.456;7.244;2023-08-20T06:34:22;20.60;98.70
48998;DHT22;34807;51.456;7.244;2023-08-20T06:36:48;20.60;98.60
48998;DHT22;34807;51.456;7.244;2023-08-20T06:39:14;20.60;98.60
48998;DHT22;34807;51.456;7.244;2023-08-20T06:41:40;20.60;98.60
48998;DHT22;34807;51.456;7.244;2023-08-20T06:44:06;20.60;98.60
48998;DHT22;34807;51.456;7.244;2023-08-20T06:46:32;20.60;98.60
48998;DHT22;34807;51.456;7.244;2023-08-20T06:48:57;20.60;98.60
48998;DHT22;34807;51.456;7.244;2023-08-20T06:51:23;20.60;98.60
48998;DHT22;34807;51.456;7.244;2023-08-20T06:53:49;20.70;98.60
48998;DHT22;34807;51.456;7.244;2023-08-20T06:56:14;20.60;98.60
48998;DHT22;34807;51.456;7.244;2023-08-20T06:58:40;20.70;98.60
48998;DHT22;34807;51.456;7.244;2023-08-20T07:01:06;20.70;98.50
48998;DHT22;34807;51.456;7.244;2023-08-20T07:03:35;20.70;98.50
48998;DHT22;34807;51.456;7.244;2023-08-20T07:06:01;20.70;98.50
48998;DHT22;34807;51.456;7.244;2023-08-20T07:08:26;20.70;98.50
48998;DHT22;34807;51.456;7.244;2023-08-20T07:10:52;20.70;98.50
48998;DHT22;34807;51.456;7.244;2023-08-20T07:13:17;20.70;98.40
48998;DHT22;34807;51.456;7.244;2023-08-20T07:15:43;20.70;98.50
48998;DHT22;34807;51.456;7.244;2023-08-20T07:18:08;20.80;98.50
48998;DHT22;34807;51.456;7.244;2023-08-20T07:20:47;20.80;98.40
48998;DHT22;34807;51.456;7.244;2023-08-20T07:23:12;20.80;98.40
48998;DHT22;34807;51.456;7.244;2023-08-20T07:25:39;20.80;98.40
48998;DHT22;34807;51.456;7.244;2023-08-20T07:28:05;20.80;98.40
48998;DHT22;34807;51.456;7.244;2023-08-20T07:30:30;20.80;98.30
48998;DHT22;34807;51.456;7.244;2023-08-20T07:32:56;20.90;98.30
48998;DHT22;34807;51.456;7.244;2023-08-20T07:35:21;20.90;98.20
48998;DHT22;34807;51.456;7.244;2023-08-20T07:37:47;20.90;98.20
48998;DHT22;34807;51.456;7.244;2023-08-20T07:40:13;20.90;98.10
48998;DHT22;34807;51.456;7.244;2023-08-20T07:42:40;20.90;98.10
48998;DHT22;34807;51.456;7.244;2023-08-20T07:45:05;21.00;98.10
48998;DHT22;34807;51.456;7.244;2023-08-20T07:47:31;21.00;98.00
48998;DHT22;34807;51.456;7.244;2023-08-20T07:49:56;21.00;98.00
48998;DHT22;34807;51.456;7.244;2023-08-20T07:52:22;21.00;97.90
48998;DHT22;34807;51.456;7.244;2023-08-20T07:54:47;21.00;97.90
48998;DHT22;34807;51.456;7.244;2023-08-20T07:57:13;21.00;97.80
48998;DHT22;34807;51.456;7.244;2023-08-20T07:59:39;21.10;97.80
48998;DHT22;34807;51.456;7.244;2023-08-20T08:02:04;21.10;97.80
48998;DHT22;34807;51.456;7.244;2023-08-20T08:04:30;21.20;97.70
48998;DHT22;34807;51.456;7.244;2023-08-20T08:06:56;21.20;97.70
48998;DHT22;34807;51.456;7.244;2023-08-20T08:09:26;21.20;97.70
48998;DHT22;34807;51.456;7.244;2023-08-20T08:11:52;21.20;97.60
48998;DHT22;34807;51.456;7.244;2023-08-20T08:14:17;21.20;97.50
48998;DHT22;34807;51.456;7.244;2023-08-20T08:16:44;21.30;97.50
48998;DHT22;34807;51.456;7.244;2023-08-20T08:19:10;21.30;97.50
48998;DHT22;34807;51.456;7.244;2023-08-20T08:21:35;21.30;97.40
48998;DHT22;34807;51.456;7.244;2023-08-20T08:24:01;21.40;97.40
48998;DHT22;34807;51.456;7.244;2023-08-20T08:26:27;21.40;97.40
48998;DHT22;34807;51.456;7.244;2023-08-20T08:28:53;21.40;97.30
48998;DHT22;34807;51.456;7.244;2023-08-20T08:31:19;21.40;97.30
48998;DHT22;34807;51.456;7.244;2023-08-20T08:33:44;21.50;97.30
48998;DHT22;34807;51.456;7.244;2023-08-20T08:36:10;21.50;97.20
48998;DHT22;34807;51.456;7.244;2023-08-20T08:38:36;21.60;97.20
48998;DHT22;34807;51.456;7.244;2023-08-20T08:41:03;21.60;97.20
48998;DHT22;34807;51.456;7.244;2023-08-20T08:43:29;21.60;97.10
48998;DHT22;34807;51.456;7.244;2023-08-20T08:45:55;21.60;97.00
48998;DHT22;34807;51.456;7.244;2023-08-20T08:48:21;21.70;97.10
48998;DHT22;34807;51.456;7.244;2023-08-20T08:50:46;21.70;96.90
48998;DHT22;34807;51.456;7.244;2023-08-20T08:53:13;21.80;96.90
48998;DHT22;34807;51.456;7.244;2023-08-20T08:55:38;21.90;97.00
48998;DHT22;34807;51.456;7.244;2023-08-20T08:58:04;21.90;96.80
48998;DHT22;34807;51.456;7.244;2023-08-20T09:00:29;22.00;96.80
48998;DHT22;34807;51.456;7.244;2023-08-20T09:02:58;22.00;96.70
48998;DHT22;34807;51.456;7.244;2023-08-20T09:05:23;22.10;96.60
48998;DHT22;34807;51.456;7.244;2023-08-20T09:07:54;22.20;96.60
48998;DHT22;34807;51.456;7.244;2023-08-20T09:10:20;22.20;96.60
48998;DHT22;34807;51.456;7.244;2023-08-20T09:12:46;22.20;96.60
48998;DHT22;34807;51.456;7.244;2023-08-20T09:15:12;22.40;96.50
48998;DHT22;34807;51.456;7.244;2023-08-20T09:17:38;22.40;96.50
48998;DHT22;34807;51.456;7.244;2023-08-20T09:20:04;22.40;96.50
48998;DHT22;34807;51.456;7.244;2023-08-20T09:22:29;22.40;96.50
48998;DHT22;34807;51.456;7.244;2023-08-20T09:24:56;22.40;96.60
48998;DHT22;34807;51.456;7.244;2023-08-20T09:27:22;22.50;96.60
48998;DHT22;34807;51.456;7.244;2023-08-20T09:29:49;22.50;96.60
48998;DHT22;34807;51.456;7.244;2023-08-20T09:32:18;22.50;96.70
48998;DHT22;34807;51.456;7.244;2023-08-20T09:34:44;22.60;96.50
48998;DHT22;34807;51.456;7.244;2023-08-20T09:37:11;22.70;96.70
48998;DHT22;34807;51.456;7.244;2023-08-20T09:39:37;22.80;96.80
48998;DHT22;34807;51.456;7.244;2023-08-20T09:42:06;22.90;96.60
48998;DHT22;34807;51.456;7.244;2023-08-20T09:44:35;22.90;96.50
48998;DHT22;34807;51.456;7.244;2023-08-20T09:47:01;23.00;96.40
48998;DHT22;34807;51.456;7.244;2023-08-20T09:49:29;23.10;96.40
48998;DHT22;34807;51.456;7.244;2023-08-20T09:51:56;23.10;96.30
48998;DHT22;34807;51.456;7.244;2023-08-20T09:54:28;23.10;96.40
48998;DHT22;34807;51.456;7.244;2023-08-20T09:56:57;23.00;96.40
48998;DHT22;34807;51.456;7.244;2023-08-20T09:59:26;23.10;96.50
48998;DHT22;34807;51.456;7.244;2023-08-20T10:01:51;23.20;96.40
48998;DHT22;34807;51.456;7.244;2023-08-20T10:04:19;23.30;96.20
48998;DHT22;34807;51.456;7.244;2023-08-20T10:06:45;23.40;96.10
48998;DHT22;34807;51.456;7.244;2023-08-20T10:09:11;23.50;96.00
48998;DHT22;34807;51.456;7.244;2023-08-20T10:11:37;23.60;96.10
48998;DHT22;34807;51.456;7.244;2023-08-20T10:14:03;23.70;95.80
48998;DHT22;34807;51.456;7.244;2023-08-20T10:16:28;23.80;95.70
48998;DHT22;34807;51.456;7.244;2023-08-20T10:18:54;23.90;95.60
48998;DHT22;34807;51.456;7.244;2023-08-20T10:21:23;24.00;95.80
48998;DHT22;34807;51.456;7.244;2023-08-20T10:23:50;23.90;95.70
48998;DHT22;34807;51.456;7.244;2023-08-20T10:26:15;24.00;95.70
48998;DHT22;34807;51.456;7.244;2023-08-20T10:28:42;23.90;95.80
48998;DHT22;34807;51.456;7.244;2023-08-20T10:31:11;23.90;95.90
48998;DHT22;34807;51.456;7.244;2023-08-20T10:36:15;23.90;96.00
48998;DHT22;34807;51.456;7.244;2023-08-20T10:38:41;23.90;96.00
48998;DHT22;34807;51.456;7.244;2023-08-20T10:41:07;23.80;96.10
48998;DHT22;34807;51.456;7.244;2023-08-20T10:43:39;23.80;96.30
48998;DHT22;34807;51.456;7.244;2023-08-20T10:46:06;23.80;96.40
48998;DHT22;34807;51.456;7.244;2023-08-20T10:48:32;23.80;96.40
48998;DHT22;34807;51.456;7.244;2023-08-20T10:51:05;23.80;96.40
48998;DHT22;34807;51.456;7.244;2023-08-20T10:53:31;23.90;96.30
48998;DHT22;34807;51.456;7.244;2023-08-20T10:56:06;24.10;96.40
48998;DHT22;34807;51.456;7.244;2023-08-20T10:58:32;24.20;96.10
48998;DHT22;34807;51.456;7.244;2023-08-20T11:01:17;24.30;95.90
48998;DHT22;34807;51.456;7.244;2023-08-20T11:03:44;24.40;95.70
48998;DHT22;34807;51.456;7.244;2023-08-20T11:06:10;24.60;95.50
48998;DHT22;34807;51.456;7.244;2023-08-20T11:08:36;24.70;95.20
48998;DHT22;34807;51.456;7.244;2023-08-20T11:11:01;24.80;95.40
48998;DHT22;34807;51.456;7.244;2023-08-20T11:13:28;24.70;95.40
48998;DHT22;34807;51.456;7.244;2023-08-20T11:15:54;24.70;95.20
48998;DHT22;34807;51.456;7.244;2023-08-20T11:18:19;24.60;95.50
48998;DHT22;34807;51.456;7.244;2023-08-20T11:20:45;24.70;95.50
48998;DHT22;34807;51.456;7.244;2023-08-20T11:23:11;24.60;95.90
48998;DHT22;34807;51.456;7.244;2023-08-20T11:25:43;24.60;95.90
48998;DHT22;34807;51.456;7.244;2023-08-20T11:28:09;24.70;96.00
48998;DHT22;34807;51.456;7.244;2023-08-20T11:30:34;24.80;95.80
48998;DHT22;34807;51.456;7.244;2023-08-20T11:33:00;24.80;95.60
48998;DHT22;34807;51.456;7.244;2023-08-20T11:35:25;24.80;95.50
48998;DHT22;34807;51.456;7.244;2023-08-20T11:37:54;24.80;95.50
48998;DHT22;34807;51.456;7.244;2023-08-20T11:40:20;24.80;95.50
48998;DHT22;34807;51.456;7.244;2023-08-20T11:42:46;24.90;95.30
48998;DHT22;34807;51.456;7.244;2023-08-20T11:45:11;24.90;95.30
48998;DHT22;34807;51.456;7.244;2023-08-20T11:47:40;25.00;95.40
48998;DHT22;34807;51.456;7.244;2023-08-20T11:50:06;25.10;95.40
48998;DHT22;34807;51.456;7.244;2023-08-20T11:52:32;25.30;94.90
48998;DHT22;34807;51.456;7.244;2023-08-20T11:54:58;25.40;94.80
48998;DHT22;34807;51.456;7.244;2023-08-20T11:57:24;25.50;94.80
48998;DHT22;34807;51.456;7.244;2023-08-20T11:59:50;25.50;95.10
48998;DHT22;34807;51.456;7.244;2023-08-20T12:02:24;25.40;95.30
48998;DHT22;34807;51.456;7.244;2023-08-20T12:04:50;25.40;95.40
48998;DHT22;34807;51.456;7.244;2023-08-20T12:07:16;25.40;95.50
48998;DHT22;34807;51.456;7.244;2023-08-20T12:09:41;25.50;95.40
48998;DHT22;34807;51.456;7.244;2023-08-20T12:12:07;25.50;95.20
48998;DHT22;34807;51.456;7.244;2023-08-20T12:14:33;25.60;95.10
48998;DHT22;34807;51.456;7.244;2023-08-20T12:16:59;25.70;95.10
48998;DHT22;34807;51.456;7.244;2023-08-20T12:19:25;25.80;95.00
48998;DHT22;34807;51.456;7.244;2023-08-20T12:21:50;25.80;95.00
48998;DHT22;34807;51.456;7.244;2023-08-20T12:24:16;25.90;94.70
48998;DHT22;34807;51.456;7.244;2023-08-20T12:26:42;26.00;94.40
48998;DHT22;34807;51.456;7.244;2023-08-20T12:29:07;26.10;94.10
48998;DHT22;34807;51.456;7.244;2023-08-20T12:31:33;26.20;93.90
48998;DHT22;34807;51.456;7.244;2023-08-20T12:33:59;26.20;94.20
48998;DHT22;34807;51.456;7.244;2023-08-20T12:36:24;26.20;94.30
48998;DHT22;34807;51.456;7.244;2023-08-20T12:38:50;26.10;94.70
48998;DHT22;34807;51.456;7.244;2023-08-20T12:41:15;26.20;94.70
48998;DHT22;34807;51.456;7.244;2023-08-20T12:43:41;26.20;94.60
48998;DHT22;34807;51.456;7.244;2023-08-20T12:46:07;26.20;94.90
48998;DHT22;34807;51.456;7.244;2023-08-20T12:48:32;26.30;94.80
48998;DHT22;34807;51.456;7.244;2023-08-20T12:50:58;26.40;94.80
48998;DHT22;34807;51.456;7.244;2023-08-20T12:53:24;26.40;94.80
48998;DHT22;34807;51.456;7.244;2023-08-20T12:55:49;26.50;94.60
48998;DHT22;34807;51.456;7.244;2023-08-20T12:58:15;26.50;94.50
48998;DHT22;34807;51.456;7.244;2023-08-20T13:00:40;26.50;94.40
48998;DHT22;34807;51.456;7.244;2023-08-20T13:03:06;26.50;94.10
48998;DHT22;34807;51.456;7.244;2023-08-20T13:05:31;26.50;94.50
48998;DHT22;34807;51.456;7.244;2023-08-20T13:07:57;26.50;94.50
48998;DHT22;34807;51.456;7.244;2023-08-20T13:10:23;26.60;94.50
48998;DHT22;34807;51.456;7.244;2023-08-20T13:12:49;26.60;94.50
48998;DHT22;34807;51.456;7.244;2023-08-20T13:15:18;26.70;94.60
48998;DHT22;34807;51.456;7.244;2023-08-20T13:17:47;26.80;94.10
48998;DHT22;34807;51.456;7.244;2023-08-20T13:20:13;26.80;93.90
48998;DHT22;34807;51.456;7.244;2023-08-20T13:22:39;26.80;94.10
48998;DHT22;34807;51.456;7.244;2023-08-20T13:25:05;26.80;93.80
48998;DHT22;34807;51.456;7.244;2023-08-20T13:27:30;26.70;94.10
48998;DHT22;34807;51.456;7.244;2023-08-20T13:29:56;26.70;94.00
48998;DHT22;34807;51.456;7.244;2023-08-20T13:32:22;26.70;94.50
48998;DHT22;34807;51.456;7.244;2023-08-20T13:34:49;26.70;94.50
48998;DHT22;34807;51.456;7.244;2023-08-20T13:37:15;26.70;94.60
48998;DHT22;34807;51.456;7.244;2023-08-20T13:39:40;26.80;94.60
48998;DHT22;34807;51.456;7.244;2023-08-20T13:42:06;26.80;94.40
48998;DHT22;34807;51.456;7.244;2023-08-20T13:44:31;26.90;94.60
48998;DHT22;34807;51.456;7.244;2023-08-20T13:46:57;26.90;94.30
48998;DHT22;34807;51.456;7.244;2023-08-20T13:49:22;27.00;94.30
48998;DHT22;34807;51.456;7.244;2023-08-20T13:51:48;27.00;94.10
48998;DHT22;34807;51.456;7.244;2023-08-20T13:54:13;27.10;93.90
48998;DHT22;34807;51.456;7.244;2023-08-20T13:56:39;27.10;93.90
48998;DHT22;34807;51.456;7.244;2023-08-20T13:59:04;27.20;92.30
48998;DHT22;34807;51.456;7.244;2023-08-20T14:01:30;27.30;93.40
48998;DHT22;34807;51.456;7.244;2023-08-20T14:03:55;27.30;93.00
48998;DHT22;34807;51.456;7.244;2023-08-20T14:06:21;27.40;92.80
48998;DHT22;34807;51.456;7.244;2023-08-20T14:08:46;27.40;92.80
48998;DHT22;34807;51.456;7.244;2023-08-20T14:11:12;27.50;92.80
48998;DHT22;34807;51.456;7.244;2023-08-20T14:13:37;27.60;92.80
48998;DHT22;34807;51.456;7.244;2023-08-20T14:16:03;27.60;92.70
48998;DHT22;34807;51.456;7.244;2023-08-20T14:18:28;27.70;91.70
48998;DHT22;34807;51.456;7.244;2023-08-20T14:20:54;27.70;92.20
48998;DHT22;34807;51.456;7.244;2023-08-20T14:23:20;27.70;92.20
48998;DHT22;34807;51.456;7.244;2023-08-20T14:25:45;27.70;92.10
48998;DHT22;34807;51.456;7.244;2023-08-20T14:28:11;27.60;92.50
48998;DHT22;34807;51.456;7.244;2023-08-20T14:30:37;27.60;92.60
48998;DHT22;34807;51.456;7.244;2023-08-20T14:33:03;27.60;92.80
48998;DHT22;34807;51.456;7.244;2023-08-20T14:35:29;27.50;92.80
48998;DHT22;34807;51.456;7.244;2023-08-20T14:37:55;27.50;93.00
48998;DHT22;34807;51.456;7.244;2023-08-20T14:40:20;27.40;93.20
48998;DHT22;34807;51.456;7.244;2023-08-20T14:42:46;27.60;92.90
48998;DHT22;34807;51.456;7.244;2023-08-20T14:45:11;27.60;92.30
48998;DHT22;34807;51.456;7.244;2023-08-20T14:47:37;27.50;91.20
48998;DHT22;34807;51.456;7.244;2023-08-20T14:50:02;27.60;91.30
48998;DHT22;34807;51.456;7.244;2023-08-20T14:52:28;27.70;89.50
48998;DHT22;34807;51.456;7.244;2023-08-20T14:54:54;27.80;89.80
48998;DHT22;34807;51.456;7.244;2023-08-20T14:57:19;28.00;88.10
48998;DHT22;34807;51.456;7.244;2023-08-20T14:59:45;28.20;87.80
48998;DHT22;34807;51.456;7.244;2023-08-20T15:02:10;28.30;87.30
48998;DHT22;34807;51.456;7.244;2023-08-20T15:04:36;28.50;87.00
48998;DHT22;34807;51.456;7.244;2023-08-20T15:07:01;28.70;85.70
48998;DHT22;34807;51.456;7.244;2023-08-20T15:09:27;28.80;84.10
48998;DHT22;34807;51.456;7.244;2023-08-20T15:11:52;29.00;82.80
48998;DHT22;34807;51.456;7.244;2023-08-20T15:14:18;29.10;81.70
48998;DHT22;34807;51.456;7.244;2023-08-20T15:16:45;29.30;80.40
48998;DHT22;34807;51.456;7.244;2023-08-20T15:19:10;29.50;79.60
48998;DHT22;34807;51.456;7.244;2023-08-20T15:21:36;29.60;80.00
48998;DHT22;34807;51.456;7.244;2023-08-20T15:24:01;29.90;79.40
48998;DHT22;34807;51.456;7.244;2023-08-20T15:26:29;30.10;79.70
48998;DHT22;34807;51.456;7.244;2023-08-20T15:28:54;30.30;79.40
48998;DHT22;34807;51.456;7.244;2023-08-20T15:31:20;30.50;79.60